Time;durP1;ratioP1;P1;durP2;ratioP2;P2;SDS_P1;SDS_P2;PMS_P1;PMS_P2;Temp;Humidity;BMP_temperature;BMP_pressure;BME280_temperature;BME280_humidity;BME280_pressure;Samples;Min_cycle;Max_cycle;Signal;HPM_P1;HPM_P2
2021/05/07 00:00:42;;;;;;;4.93;3.55;;;;;;;;;;4999006;28;20026;-81
2021/05/07 00:03:08;;;;;;;2.73;2.27;;;;;;;;;;4996230;28;20026;-82
2021/05/07 00:05:34;;;;;;;8.63;3.47;;;;;;;;;;4996664;28;20295;-81
2021/05/07 00:08:00;;;;;;;6.43;3.78;;;;;;;;;;4996523;28;20037;-82
2021/05/07 00:10:26;;;;;;;6.15;4.20;;;;;;;;;;4994624;28;20049;-81
2021/05/07 00:12:53;;;;;;;7.55;4.20;;;;;;;;;;4995952;28;20084;-81
2021/05/07 00:15:19;;;;;;;6.68;4.75;;;;;;;;;;4998148;28;20049;-81
2021/05/07 00:17:45;;;;;;;9.23;5.05;;;;;;;;;;4997148;28;20161;-82
2021/05/07 00:20:11;;;;;;;7.68;5.03;;;;;;;;;;4996765;28;20026;-82
2021/05/07 00:22:40;;;;;;;7.95;4.95;;;;;;;;;;4995685;28;20498;-82
2021/05/07 00:25:06;;;;;;;;;;;;;;;;;;4993349;28;20050;-82
2021/05/07 00:27:31;;;;;;;7.18;4.15;;;;;;;;;;4999092;28;19913;-82
2021/05/07 00:29:57;;;;;;;6.28;4.47;;;;;;;;;;4996474;28;20376;-82
2021/05/07 00:32:23;;;;;;;6.10;4.70;;;;;;;;;;4995217;28;20027;-82
2021/05/07 00:34:49;;;;;;;7.22;4.93;;;;;;;;;;4995464;28;20058;-82
2021/05/07 00:37:15;;;;;;;5.68;4.00;;;;;;;;;;4973955;28;20030;-81
2021/05/07 00:39:41;;;;;;;5.93;4.15;;;;;;;;;;4980073;28;20065;-81
2021/05/07 00:42:09;;;;;;;5.50;3.58;;;;;;;;;;4995352;28;20538;-81
2021/05/07 00:44:35;;;;;;;6.10;3.58;;;;;;;;;;4996364;28;20495;-81
2021/05/07 00:47:04;;;;;;;5.47;3.55;;;;;;;;;;4996767;28;20386;-81
2021/05/07 00:49:32;;;;;;;5.38;3.70;;;;;;;;;;4992477;28;20437;-81
2021/05/07 00:51:58;;;;;;;6.35;3.80;;;;;;;;;;4993233;28;20034;-81
2021/05/07 00:54:24;;;;;;;5.10;3.47;;;;;;;;;;4998393;28;20061;-81
2021/05/07 00:56:50;;;;;;;6.65;4.05;;;;;;;;;;4979751;28;20053;-81
2021/05/07 00:59:16;;;;;;;6.90;4.55;;;;;;;;;;4980109;28;20463;-82
2021/05/07 01:01:42;;;;;;;6.68;4.50;;;;;;;;;;4995458;28;20032;-81
2021/05/07 01:04:08;;;;;;;6.50;4.40;;;;;;;;;;4991559;28;20045;-81
2021/05/07 01:06:34;;;;;;;5.68;4.07;;;;;;;;;;4998358;28;20019;-81
2021/05/07 01:09:00;;;;;;;6.10;3.85;;;;;;;;;;4996073;28;20041;-81
2021/05/07 01:11:26;;;;;;;6.35;4.05;;;;;;;;;;4994788;28;20030;-82
2021/05/07 01:13:52;;;;;;;6.32;4.13;;;;;;;;;;4994617;28;20037;-81
2021/05/07 01:16:18;;;;;;;7.22;4.30;;;;;;;;;;4973250;28;20034;-82
2021/05/07 01:18:44;;;;;;;6.03;4.32;;;;;;;;;;4996338;28;20050;-81
2021/05/07 01:21:10;;;;;;;6.10;4.43;;;;;;;;;;4996377;28;20069;-81
2021/05/07 01:23:36;;;;;;;6.15;4.18;;;;;;;;;;4979576;28;20487;-81
2021/05/07 01:26:02;;;;;;;6.30;4.32;;;;;;;;;;4995655;28;20037;-82
2021/05/07 01:28:28;;;;;;;6.00;4.32;;;;;;;;;;4992826;28;20526;-82
2021/05/07 01:30:54;;;;;;;7.03;4.25;;;;;;;;;;4993908;28;20034;-81
2021/05/07 01:33:21;;;;;;;6.07;4.15;;;;;;;;;;4996903;28;20101;-82
2021/05/07 01:35:49;;;;;;;6.72;4.00;;;;;;;;;;4995574;28;20109;-81
2021/05/07 01:38:15;;;;;;;;;;;;;;;;;;4995754;28;20026;-81
2021/05/07 01:40:43;;;;;;;5.63;4.00;;;;;;;;;;4994714;28;20425;-81
2021/05/07 01:43:09;;;;;;;7.10;4.65;;;;;;;;;;4991523;28;20041;-82
2021/05/07 01:45:36;;;;;;;6.60;4.35;;;;;;;;;;4997257;28;20049;-81
2021/05/07 01:48:03;;;;;;;5.32;4.03;;;;;;;;;;4995311;28;20089;-81
2021/05/07 01:50:30;;;;;;;6.90;4.45;;;;;;;;;;4979006;28;20590;-81
2021/05/07 01:52:56;;;;;;;7.70;4.30;;;;;;;;;;4993389;28;20080;-82
2021/05/07 01:55:24;;;;;;;6.93;3.95;;;;;;;;;;4992773;28;20023;-81
2021/05/07 01:57:50;;;;;;;8.45;4.78;;;;;;;;;;4994866;28;20476;-81
2021/05/07 02:00:17;;;;;;;5.90;3.88;;;;;;;;;;4996306;28;20057;-83
2021/05/07 02:02:44;;;;;;;5.90;4.00;;;;;;;;;;4994484;28;20026;-81
2021/05/07 02:05:10;;;;;;;6.25;4.13;;;;;;;;;;4994676;28;20065;-81
2021/05/07 02:07:36;;;;;;;5.88;4.00;;;;;;;;;;4993177;28;20113;-83
2021/05/07 02:10:06;;;;;;;6.10;4.00;;;;;;;;;;4992020;28;20038;-82
2021/05/07 02:12:32;;;;;;;6.13;3.95;;;;;;;;;;4996355;28;20026;-83
2021/05/07 02:14:57;;;;;;;5.43;3.55;;;;;;;;;;4994730;28;20045;-82
2021/05/07 02:17:23;;;;;;;6.10;3.55;;;;;;;;;;4994743;28;20097;-82
2021/05/07 02:19:49;;;;;;;6.07;4.22;;;;;;;;;;4979055;28;20030;-82
2021/05/07 02:22:15;;;;;;;6.25;4.22;;;;;;;;;;4991038;28;20019;-82
2021/05/07 02:24:41;;;;;;;5.78;4.38;;;;;;;;;;4996666;28;20591;-82
2021/05/07 02:27:07;;;;;;;6.10;3.88;;;;;;;;;;4994475;28;20030;-82
2021/05/07 02:29:33;;;;;;;5.60;3.83;;;;;;;;;;4993228;28;20387;-82
2021/05/07 02:31:59;;;;;;;5.55;4.22;;;;;;;;;;4993315;28;20034;-82
2021/05/07 02:34:25;;;;;;;5.13;3.85;;;;;;;;;;4990631;28;20125;-82
2021/05/07 02:36:51;;;;;;;6.25;3.83;;;;;;;;;;4994243;28;20030;-82
2021/05/07 02:39:17;;;;;;;5.50;3.75;;;;;;;;;;4996049;28;20022;-81
2021/05/07 02:41:44;;;;;;;6.97;3.53;;;;;;;;;;4994777;28;20030;-82
2021/05/07 02:44:10;;;;;;;7.10;3.88;;;;;;;;;;4978432;28;20034;-81
2021/05/07 02:46:36;;;;;;;5.88;3.80;;;;;;;;;;4992610;28;20030;-81
2021/05/07 02:49:03;;;;;;;6.85;4.10;;;;;;;;;;4991553;28;20026;-82
2021/05/07 02:51:30;;;;;;;5.95;4.10;;;;;;;;;;4996673;28;20037;-82
2021/05/07 02:53:56;;;;;;;7.03;4.00;;;;;;;;;;4994665;28;20030;-82
2021/05/07 02:56:22;;;;;;;4.55;3.50;;;;;;;;;;4993856;28;20046;-81
2021/05/07 02:58:48;;;;;;;6.85;3.63;;;;;;;;;;4993150;28;20030;-81
2021/05/07 03:01:14;;;;;;;5.85;4.20;;;;;;;;;;4990303;28;20607;-81
2021/05/07 03:03:40;;;;;;;6.40;4.53;;;;;;;;;;4996274;28;20124;-81
2021/05/07 03:06:06;;;;;;;7.00;4.68;;;;;;;;;;4993222;28;20022;-81
2021/05/07 03:08:32;;;;;;;7.32;5.22;;;;;;;;;;4992877;28;20022;-81
2021/05/07 03:10:58;;;;;;;7.30;5.35;;;;;;;;;;4992818;28;20026;-81
2021/05/07 03:13:24;;;;;;;6.82;5.18;;;;;;;;;;4990323;28;20118;-81
2021/05/07 03:15:50;;;;;;;7.00;4.65;;;;;;;;;;4993733;28;20105;-81
2021/05/07 03:18:17;;;;;;;7.40;4.60;;;;;;;;;;4995616;28;20034;-81
2021/05/07 03:20:43;;;;;;;8.27;4.85;;;;;;;;;;4997333;28;20030;-82
2021/05/07 03:23:10;;;;;;;6.93;4.85;;;;;;;;;;4997249;28;20118;-81
2021/05/07 03:25:36;;;;;;;9.93;5.47;;;;;;;;;;4995431;28;20521;-81
2021/05/07 03:28:02;;;;;;;5.65;4.50;;;;;;;;;;4980278;28;20424;-81
2021/05/07 03:30:28;;;;;;;5.35;3.60;;;;;;;;;;4998817;28;20030;-82
2021/05/07 03:32:54;;;;;;;5.07;3.90;;;;;;;;;;4997566;28;20407;-81
2021/05/07 03:35:20;;;;;;;6.22;4.10;;;;;;;;;;4987367;28;20027;-81
2021/05/07 03:37:46;;;;;;;5.28;3.97;;;;;;;;;;4990363;28;20027;-81
2021/05/07 03:40:13;;;;;;;5.80;3.88;;;;;;;;;;4989908;28;20029;-82
2021/05/07 03:42:39;;;;;;;5.05;3.95;;;;;;;;;;4990684;28;20018;-83
2021/05/07 03:45:06;;;;;;;8.20;4.25;;;;;;;;;;4987112;28;20109;-83
2021/05/07 03:47:32;;;;;;;8.10;4.50;;;;;;;;;;4995691;28;20026;-82
2021/05/07 03:49:58;;;;;;;6.53;4.05;;;;;;;;;;4996017;28;20073;-83
2021/05/07 03:52:24;;;;;;;6.70;4.38;;;;;;;;;;4992953;28;20050;-83
2021/05/07 03:54:50;;;;;;;6.35;4.50;;;;;;;;;;5000685;28;20026;-82
2021/05/07 03:57:16;;;;;;;8.70;4.80;;;;;;;;;;5004453;28;20041;-82
2021/05/07 03:59:42;;;;;;;7.65;4.57;;;;;;;;;;4998230;28;20031;-84
2021/05/07 04:02:08;;;;;;;6.13;4.13;;;;;;;;;;4997185;28;20509;-84
2021/05/07 04:04:36;;;;;;;6.07;4.40;;;;;;;;;;4996727;28;20132;-83
2021/05/07 04:07:02;;;;;;;8.52;4.60;;;;;;;;;;5015585;28;20033;-83
2021/05/07 04:09:37;;;;;;;7.47;4.70;;;;;;;;;;5000503;28;20034;-83
2021/05/07 04:12:20;;;;;;;8.75;5.20;;;;;;;;;;4999242;28;20027;-82
2021/05/07 04:14:46;;;;;;;8.05;5.63;;;;;;;;;;4998761;28;20026;-83
2021/05/07 04:17:11;;;;;;;9.52;5.45;;;;;;;;;;4998484;28;20053;-83
2021/05/07 04:19:38;;;;;;;7.50;4.60;;;;;;;;;;4996163;28;20050;-83
2021/05/07 04:22:04;;;;;;;6.38;4.40;;;;;;;;;;4993849;28;20047;-83
2021/05/07 04:24:30;;;;;;;7.07;4.88;;;;;;;;;;5000236;28;20030;-83
2021/05/07 04:26:56;;;;;;;6.28;4.47;;;;;;;;;;4995927;28;20023;-83
2021/05/07 04:29:22;;;;;;;9.48;5.90;;;;;;;;;;4996633;28;20490;-83
2021/05/07 04:31:48;;;;;;;7.32;5.45;;;;;;;;;;4989131;28;20023;-83
2021/05/07 04:34:14;;;;;;;10.18;6.07;;;;;;;;;;5009989;28;20030;-83
2021/05/07 04:36:40;;;;;;;7.60;5.63;;;;;;;;;;4998721;28;20045;-83
2021/05/07 04:39:07;;;;;;;9.27;5.90;;;;;;;;;;4997234;28;20030;-83
2021/05/07 04:41:33;;;;;;;7.63;5.05;;;;;;;;;;4998974;28;20383;-83
2021/05/07 04:43:59;;;;;;;9.05;4.95;;;;;;;;;;4997144;28;20046;-82
2021/05/07 04:46:25;;;;;;;7.00;5.18;;;;;;;;;;4997072;28;20022;-83
2021/05/07 04:48:51;;;;;;;7.53;4.90;;;;;;;;;;4998868;28;20034;-83
2021/05/07 04:51:17;;;;;;;8.35;5.85;;;;;;;;;;4996268;28;20137;-83
2021/05/07 04:53:43;;;;;;;9.80;6.10;;;;;;;;;;4996702;28;20202;-83
2021/05/07 04:56:09;;;;;;;9.93;6.00;;;;;;;;;;4996066;28;20026;-83
2021/05/07 04:58:35;;;;;;;8.18;5.65;;;;;;;;;;4996068;28;20525;-83
2021/05/07 05:01:02;;;;;;;10.00;5.90;;;;;;;;;;4993090;28;20411;-83
2021/05/07 05:03:28;;;;;;;8.95;5.43;;;;;;;;;;4998008;28;20383;-83
2021/05/07 05:05:54;;;;;;;6.53;4.95;;;;;;;;;;5006709;28;20034;-83
2021/05/07 05:08:22;;;;;;;7.53;4.70;;;;;;;;;;5003750;28;20434;-83
2021/05/07 05:10:48;;;;;;;10.15;7.10;;;;;;;;;;4996993;28;20073;-83
2021/05/07 05:13:14;;;;;;;10.18;5.65;;;;;;;;;;4992287;28;20019;-83
2021/05/07 05:15:40;;;;;;;9.32;6.40;;;;;;;;;;4998117;28;20026;-83
2021/05/07 05:18:06;;;;;;;9.43;6.10;;;;;;;;;;4996290;28;20106;-83
2021/05/07 05:20:32;;;;;;;5.72;3.97;;;;;;;;;;4993248;28;20188;-85
2021/05/07 05:22:58;;;;;;;7.32;4.38;;;;;;;;;;5005547;28;20084;-85
2021/05/07 05:25:24;;;;;;;8.15;6.25;;;;;;;;;;4992577;28;20045;-83
2021/05/07 05:27:50;;;;;;;10.68;6.70;;;;;;;;;;4995620;28;20487;-83
2021/05/07 05:30:16;;;;;;;9.05;6.82;;;;;;;;;;4996509;28;20378;-84
2021/05/07 05:32:42;;;;;;;9.55;7.28;;;;;;;;;;4997840;28;20022;-82
2021/05/07 05:35:09;;;;;;;8.88;6.45;;;;;;;;;;4996974;28;20076;-83
2021/05/07 05:37:35;;;;;;;8.77;6.30;;;;;;;;;;4994303;28;20030;-83
2021/05/07 05:40:01;;;;;;;8.75;6.30;;;;;;;;;;4992182;28;20062;-83
2021/05/07 05:42:27;;;;;;;8.27;5.25;;;;;;;;;;4997862;28;20061;-83
2021/05/07 05:44:53;;;;;;;8.27;5.20;;;;;;;;;;4995049;28;20335;-83
2021/05/07 05:47:18;;;;;;;6.15;4.65;;;;;;;;;;4998729;28;20026;-83
2021/05/07 05:49:44;;;;;;;7.10;4.65;;;;;;;;;;4995614;28;20411;-83
2021/05/07 05:52:10;;;;;;;6.07;4.28;;;;;;;;;;4991470;28;20158;-84
2021/05/07 05:54:36;;;;;;;5.78;3.47;;;;;;;;;;4997319;28;20098;-84
2021/05/07 05:57:02;;;;;;;5.28;3.33;;;;;;;;;;4978687;28;20037;-83
2021/05/07 05:59:28;;;;;;;6.85;3.10;;;;;;;;;;4995478;28;20028;-84
2021/05/07 06:01:54;;;;;;;5.07;2.80;;;;;;;;;;4994904;28;20113;-85
2021/05/07 06:04:20;;;;;;;3.85;2.50;;;;;;;;;;4988028;28;20041;-83
2021/05/07 06:06:46;;;;;;;3.85;3.05;;;;;;;;;;4956971;28;20022;-83
2021/05/07 06:09:13;;;;;;;4.55;2.47;;;;;;;;;;5001383;28;20105;-83
2021/05/07 06:11:39;;;;;;;4.25;2.08;;;;;;;;;;5003496;28;20026;-83
2021/05/07 06:14:05;;;;;;;3.85;2.47;;;;;;;;;;5003260;28;20108;-84
2021/05/07 06:16:31;;;;;;;4.90;2.20;;;;;;;;;;4992263;28;20029;-83
2021/05/07 06:18:57;;;;;;;3.95;1.98;;;;;;;;;;4992851;28;20034;-83
2021/05/07 06:21:23;;;;;;;2.60;1.65;;;;;;;;;;4994678;28;20031;-84
2021/05/07 06:23:49;;;;;;;3.83;1.67;;;;;;;;;;4998241;28;20045;-84
2021/05/07 06:26:15;;;;;;;6.22;2.00;;;;;;;;;;4997246;28;20034;-83
2021/05/07 06:28:41;;;;;;;3.40;1.90;;;;;;;;;;4993718;28;20093;-83
2021/05/07 06:31:07;;;;;;;3.35;1.70;;;;;;;;;;4990101;28;20030;-84
2021/05/07 06:33:33;;;;;;;2.25;1.60;;;;;;;;;;4995710;28;20058;-84
2021/05/07 06:36:00;;;;;;;1.92;1.52;;;;;;;;;;4992759;28;20485;-84
2021/05/07 06:38:26;;;;;;;3.67;1.42;;;;;;;;;;4994166;28;20038;-85
2021/05/07 06:40:52;;;;;;;2.50;1.58;;;;;;;;;;4995643;28;20515;-84
2021/05/07 06:43:18;;;;;;;2.70;1.50;;;;;;;;;;4990717;28;20035;-84
2021/05/07 06:45:44;;;;;;;3.22;1.58;;;;;;;;;;4995426;28;20049;-84
2021/05/07 06:48:10;;;;;;;2.47;1.60;;;;;;;;;;4995182;28;20027;-83
2021/05/07 06:50:36;;;;;;;4.50;1.60;;;;;;;;;;4994376;28;20038;-83
2021/05/07 06:53:02;;;;;;;2.47;1.42;;;;;;;;;;4994470;28;20092;-83
2021/05/07 06:55:28;;;;;;;2.13;1.48;;;;;;;;;;4992345;28;20029;-83
2021/05/07 06:57:54;;;;;;;2.75;1.55;;;;;;;;;;4996066;28;20117;-83
2021/05/07 07:00:20;;;;;;;3.17;1.73;;;;;;;;;;5003628;28;20021;-84
2021/05/07 07:02:46;;;;;;;2.00;1.40;;;;;;;;;;5000057;28;20461;-83
2021/05/07 07:05:12;;;;;;;8.50;1.48;;;;;;;;;;4998338;28;20046;-83
2021/05/07 07:07:39;;;;;;;4.20;1.65;;;;;;;;;;4998015;28;20481;-83
2021/05/07 07:10:06;;;;;;;3.33;1.50;;;;;;;;;;4994564;28;20392;-83
2021/05/07 07:12:32;;;;;;;2.58;1.15;;;;;;;;;;5015713;28;20026;-84
2021/05/07 07:14:58;;;;;;;2.28;1.15;;;;;;;;;;4998414;28;20042;-84
2021/05/07 07:17:24;;;;;;;2.35;1.27;;;;;;;;;;4997920;28;20045;-84
2021/05/07 07:19:49;;;;;;;2.85;1.27;;;;;;;;;;4998565;28;20018;-84
2021/05/07 07:22:17;;;;;;;1.73;1.10;;;;;;;;;;5013225;28;20077;-85
2021/05/07 07:24:43;;;;;;;1.77;1.00;;;;;;;;;;5003153;28;20018;-84
2021/05/07 07:27:09;;;;;;;2.47;1.13;;;;;;;;;;4998505;28;20034;-84
2021/05/07 07:29:35;;;;;;;1.60;1.20;;;;;;;;;;4996097;28;20033;-84
2021/05/07 07:32:01;;;;;;;1.08;0.90;;;;;;;;;;4997680;28;20065;-84
2021/05/07 07:34:28;;;;;;;2.00;1.13;;;;;;;;;;4992981;28;20030;-84
2021/05/07 07:36:54;;;;;;;1.60;1.27;;;;;;;;;;4997923;28;20079;-84
2021/05/07 07:39:20;;;;;;;2.45;1.00;;;;;;;;;;4998450;28;20034;-84
2021/05/07 07:41:49;;;;;;;1.48;1.08;;;;;;;;;;4979792;28;20022;-84
2021/05/07 07:44:17;;;;;;;1.83;1.00;;;;;;;;;;4996601;28;20573;-84
2021/05/07 07:46:43;;;;;;;3.05;1.10;;;;;;;;;;4999306;28;20067;-84
2021/05/07 07:49:09;;;;;;;1.67;1.00;;;;;;;;;;4992067;28;20118;-84
2021/05/07 07:51:35;;;;;;;1.30;1.00;;;;;;;;;;4997642;28;20293;-84
2021/05/07 07:54:03;;;;;;;2.15;1.20;;;;;;;;;;4999084;28;20038;-83
2021/05/07 07:56:29;;;;;;;;;;;;;;;;;;4980543;28;20556;-83
2021/05/07 07:58:55;;;;;;;3.13;1.10;;;;;;;;;;4996940;28;20004;-84
2021/05/07 08:01:21;;;;;;;2.40;1.00;;;;;;;;;;4983756;28;20023;-84
2021/05/07 08:03:47;;;;;;;2.13;1.15;;;;;;;;;;4996995;28;20386;-84
2021/05/07 08:06:13;;;;;;;2.92;1.10;;;;;;;;;;4995425;28;20046;-84
2021/05/07 08:08:39;;;;;;;1.88;1.10;;;;;;;;;;4982922;28;20023;-84
2021/05/07 08:11:05;;;;;;;2.08;1.00;;;;;;;;;;4997369;28;20068;-84
2021/05/07 08:13:31;;;;;;;1.80;1.00;;;;;;;;;;4994023;28;20482;-84
2021/05/07 08:15:57;;;;;;;1.58;0.95;;;;;;;;;;4993632;28;20069;-84
2021/05/07 08:18:23;;;;;;;2.22;1.00;;;;;;;;;;5000103;28;20058;-83
2021/05/07 08:20:49;;;;;;;2.33;1.20;;;;;;;;;;4996194;28;20054;-84
2021/05/07 08:23:15;;;;;;;2.00;1.05;;;;;;;;;;4999209;28;20022;-84
2021/05/07 08:25:41;;;;;;;1.58;0.90;;;;;;;;;;5008765;28;20113;-83
2021/05/07 08:28:07;;;;;;;1.98;1.00;;;;;;;;;;4991013;28;20114;-83
2021/05/07 08:30:33;;;;;;;1.48;1.00;;;;;;;;;;4996869;28;20026;-84
2021/05/07 08:32:59;;;;;;;2.10;1.25;;;;;;;;;;4996223;28;20416;-84
2021/05/07 08:35:25;;;;;;;1.50;1.05;;;;;;;;;;4978975;28;20046;-84
2021/05/07 08:37:54;;;;;;;3.45;1.35;;;;;;;;;;4982541;28;20022;-83
2021/05/07 08:40:20;;;;;;;2.00;1.00;;;;;;;;;;4993625;28;20491;-84
2021/05/07 08:42:46;;;;;;;2.35;1.10;;;;;;;;;;4998961;28;20277;-84
2021/05/07 08:45:13;;;;;;;1.75;1.10;;;;;;;;;;4997573;28;20406;-84
2021/05/07 08:47:39;;;;;;;2.20;1.00;;;;;;;;;;4995644;28;20073;-82
2021/05/07 08:50:07;;;;;;;1.88;1.08;;;;;;;;;;4994954;28;20283;-83
2021/05/07 08:52:34;;;;;;;1.35;0.95;;;;;;;;;;4996414;28;20471;-83
2021/05/07 08:55:00;;;;;;;1.23;0.90;;;;;;;;;;4972566;28;20053;-84
2021/05/07 08:57:27;;;;;;;2.20;1.10;;;;;;;;;;4994137;28;20034;-83
2021/05/07 08:59:53;;;;;;;3.75;1.00;;;;;;;;;;4997141;28;20022;-83
2021/05/07 09:02:29;;;;;;;2.80;0.90;;;;;;;;;;4993346;28;20443;-83
2021/05/07 09:04:56;;;;;;;3.15;1.02;;;;;;;;;;4997088;28;20164;-83
2021/05/07 09:07:23;;;;;;;2.33;1.03;;;;;;;;;;4992533;28;20061;-83
2021/05/07 09:09:50;;;;;;;2.03;1.10;;;;;;;;;;4994577;28;20268;-83
2021/05/07 09:12:26;;;;;;;4.13;1.10;;;;;;;;;;5008720;28;20045;-83
2021/05/07 09:14:52;;;;;;;3.97;1.00;;;;;;;;;;4998152;28;20031;-83
2021/05/07 09:17:20;;;;;;;0.98;0.75;;;;;;;;;;4981548;28;20394;-84
2021/05/07 09:19:46;;;;;;;1.92;0.90;;;;;;;;;;4978978;28;20025;-83
2021/05/07 09:22:22;;;;;;;3.00;0.93;;;;;;;;;;4968051;28;20084;-83
2021/05/07 09:24:48;;;;;;;1.40;0.82;;;;;;;;;;4989540;28;20045;-83
2021/05/07 09:27:21;;;;;;;2.75;1.00;;;;;;;;;;4995295;28;20471;-84
2021/05/07 09:29:47;;;;;;;2.67;0.85;;;;;;;;;;4994652;28;20023;-83
2021/05/07 09:32:13;;;;;;;3.05;0.90;;;;;;;;;;4992265;28;20037;-83
2021/05/07 09:34:39;;;;;;;1.92;0.90;;;;;;;;;;4994066;28;20025;-83
2021/05/07 09:37:17;;;;;;;1.80;0.88;;;;;;;;;;4993202;28;20030;-82
2021/05/07 09:39:43;;;;;;;5.15;1.00;;;;;;;;;;5008501;28;20045;-84
2021/05/07 09:42:08;;;;;;;3.20;0.90;;;;;;;;;;4981128;28;20041;-83
2021/05/07 09:44:35;;;;;;;0.93;0.70;;;;;;;;;;4994394;28;20509;-83
2021/05/07 09:47:12;;;;;;;2.28;0.90;;;;;;;;;;4994770;28;20026;-84
2021/05/07 09:49:38;;;;;;;4.22;1.02;;;;;;;;;;5003990;28;20478;-85
2021/05/07 09:52:04;;;;;;;4.07;1.10;;;;;;;;;;4994598;28;20038;-85
2021/05/07 09:54:30;;;;;;;2.13;0.93;;;;;;;;;;4986000;28;20018;-85
2021/05/07 09:56:57;;;;;;;5.72;1.20;;;;;;;;;;4997959;28;20053;-84
2021/05/07 09:59:23;;;;;;;2.70;0.98;;;;;;;;;;4999576;28;20064;-85
2021/05/07 10:01:50;;;;;;;3.38;0.88;;;;;;;;;;4990242;28;20399;-85
2021/05/07 10:04:16;;;;;;;1.60;0.63;;;;;;;;;;4990114;28;20479;-85
2021/05/07 10:06:42;;;;;;;1.13;0.63;;;;;;;;;;4998283;28;20034;-85
2021/05/07 10:09:09;;;;;;;2.13;1.00;;;;;;;;;;4995873;28;20026;-85
2021/05/07 10:11:38;;;;;;;3.08;1.00;;;;;;;;;;4992785;28;20026;-85
2021/05/07 10:14:10;;;;;;;2.88;1.00;;;;;;;;;;5000048;28;20030;-85
2021/05/07 10:16:36;;;;;;;1.83;0.80;;;;;;;;;;4990145;28;20031;-84
2021/05/07 10:19:06;;;;;;;2.80;1.00;;;;;;;;;;5006945;28;20037;-85
2021/05/07 10:21:37;;;;;;;2.70;0.80;;;;;;;;;;4999571;28;20033;-85
2021/05/07 10:24:03;;;;;;;1.05;0.60;;;;;;;;;;4992072;28;20026;-85
2021/05/07 10:26:33;;;;;;;1.77;0.75;;;;;;;;;;5000063;28;20034;-84
2021/05/07 10:28:59;;;;;;;1.67;0.80;;;;;;;;;;4996047;28;20041;-84
2021/05/07 10:31:25;;;;;;;3.47;1.10;;;;;;;;;;4994503;28;20101;-84
2021/05/07 10:34:01;;;;;;;1.98;0.88;;;;;;;;;;4995985;28;20018;-84
2021/05/07 10:36:37;;;;;;;3.63;1.00;;;;;;;;;;4999125;28;20031;-84
2021/05/07 10:39:03;;;;;;;2.15;1.05;;;;;;;;;;4998364;28;20085;-84
2021/05/07 10:41:36;;;;;;;3.67;1.15;;;;;;;;;;4996694;28;20468;-84
2021/05/07 10:44:02;;;;;;;2.28;1.00;;;;;;;;;;4997736;28;20042;-84
2021/05/07 10:46:29;;;;;;;1.85;0.90;;;;;;;;;;4995469;28;20019;-84
2021/05/07 10:48:59;;;;;;;3.22;1.10;;;;;;;;;;5003162;28;20490;-83
2021/05/07 10:51:26;;;;;;;2.30;1.10;;;;;;;;;;4983665;28;20057;-84
2021/05/07 10:53:52;;;;;;;6.43;1.20;;;;;;;;;;4992814;28;20058;-84
2021/05/07 10:56:21;;;;;;;2.00;0.93;;;;;;;;;;4998189;28;20109;-84
2021/05/07 10:58:48;;;;;;;4.05;1.00;;;;;;;;;;4996484;28;20471;-84
2021/05/07 11:01:15;;;;;;;2.22;0.98;;;;;;;;;;4992958;28;20026;-84
2021/05/07 11:03:41;;;;;;;1.65;0.80;;;;;;;;;;4990740;28;20026;-83
2021/05/07 11:06:07;;;;;;;3.78;0.80;;;;;;;;;;4998437;28;20414;-84
2021/05/07 11:08:33;;;;;;;1.67;0.82;;;;;;;;;;4996287;28;20030;-83
2021/05/07 11:10:59;;;;;;;2.15;0.85;;;;;;;;;;4997921;28;20080;-84
2021/05/07 11:13:25;;;;;;;1.80;0.80;;;;;;;;;;4992465;28;20029;-84
2021/05/07 11:15:57;;;;;;;0.10;0.10;;;;;;;;;;5010635;28;20057;-84
2021/05/07 11:18:30;;;;;;;0.08;0.00;;;;;;;;;;4999226;28;20092;-84
2021/05/07 11:20:56;;;;;;;0.05;0.05;;;;;;;;;;4997784;28;20039;-83
2021/05/07 11:23:28;;;;;;;0.20;0.10;;;;;;;;;;4995527;28;20054;-84
2021/05/07 11:25:55;;;;;;;0.15;0.00;;;;;;;;;;4997800;28;20037;-84
2021/05/07 11:28:21;;;;;;;0.47;0.00;;;;;;;;;;4993931;28;20030;-83
2021/05/07 11:30:52;;;;;;;2.00;0.10;;;;;;;;;;4997270;28;20023;-85
2021/05/07 11:33:18;;;;;;;0.03;0.03;;;;;;;;;;4997447;28;20034;-84
2021/05/07 11:35:44;;;;;;;0.05;0.05;;;;;;;;;;4996236;28;20022;-84
2021/05/07 11:38:11;;;;;;;0.00;0.00;;;;;;;;;;4996089;28;20029;-87
2021/05/07 11:40:40;;;;;;;0.10;0.10;;;;;;;;;;5006295;28;20482;-85
2021/05/07 11:43:07;;;;;;;0.00;0.00;;;;;;;;;;4992472;28;20030;-85
2021/05/07 11:45:33;;;;;;;0.38;0.10;;;;;;;;;;4999047;28;20042;-86
2021/05/07 11:48:05;;;;;;;0.65;0.20;;;;;;;;;;4996352;28;20471;-84
2021/05/07 11:50:31;;;;;;;0.00;0.00;;;;;;;;;;5008243;28;20042;-85
2021/05/07 11:52:57;;;;;;;1.95;0.10;;;;;;;;;;5003892;28;20032;-84
2021/05/07 11:55:23;;;;;;;0.10;0.10;;;;;;;;;;4992588;28;20027;-85
2021/05/07 11:57:59;;;;;;;1.10;0.10;;;;;;;;;;4996940;28;20034;-85
2021/05/07 12:00:25;;;;;;;0.08;0.00;;;;;;;;;;4998918;28;20032;-85
2021/05/07 12:02:58;;;;;;;0.10;0.10;;;;;;;;;;4995065;28;20027;-86
2021/05/07 12:05:28;;;;;;;0.47;0.17;;;;;;;;;;4995807;28;20487;-85
2021/05/07 12:07:54;;;;;;;0.08;0.08;;;;;;;;;;4996822;28;20475;-85
2021/05/07 12:10:23;;;;;;;0.35;0.03;;;;;;;;;;4991940;28;20054;-84
2021/05/07 12:12:49;;;;;;;0.00;0.00;;;;;;;;;;4995345;28;20093;-85
2021/05/07 12:15:16;;;;;;;0.65;0.03;;;;;;;;;;4997078;28;20034;-84
2021/05/07 12:17:45;;;;;;;0.00;0.00;;;;;;;;;;5005320;28;20029;-85
2021/05/07 12:20:13;;;;;;;0.00;0.00;;;;;;;;;;4997460;28;20050;-85
2021/05/07 12:22:39;;;;;;;0.25;0.10;;;;;;;;;;4991073;28;20435;-85
2021/05/07 12:25:12;;;;;;;0.10;0.10;;;;;;;;;;4983648;28;20517;-85
2021/05/07 12:27:40;;;;;;;0.50;0.10;;;;;;;;;;4997682;28;20079;-86
2021/05/07 12:30:26;;;;;;;0.00;0.00;;;;;;;;;;4996561;28;20026;-85
2021/05/07 12:32:53;;;;;;;0.10;0.10;;;;;;;;;;4996317;28;20390;-85
2021/05/07 12:35:19;;;;;;;0.45;0.13;;;;;;;;;;4996067;28;20038;-86
2021/05/07 12:37:45;;;;;;;0.80;0.10;;;;;;;;;;4996080;28;20026;-84
2021/05/07 12:40:11;;;;;;;2.35;0.13;;;;;;;;;;4990930;28;20031;-85
2021/05/07 12:42:37;;;;;;;0.10;0.10;;;;;;;;;;4980191;28;20034;-84
2021/05/07 12:45:04;;;;;;;0.80;0.10;;;;;;;;;;4993356;28;20129;-85
2021/05/07 12:47:29;;;;;;;0.10;0.10;;;;;;;;;;4994383;28;20046;-85
2021/05/07 12:49:55;;;;;;;2.20;0.20;;;;;;;;;;4993101;28;20089;-85
2021/05/07 12:52:22;;;;;;;0.98;0.00;;;;;;;;;;5002013;28;20080;-84
2021/05/07 12:54:48;;;;;;;0.73;0.20;;;;;;;;;;5004235;28;20025;-84
2021/05/07 12:57:14;;;;;;;2.10;0.22;;;;;;;;;;5005597;28;20022;-84
2021/05/07 12:59:40;;;;;;;0.98;0.10;;;;;;;;;;4999200;28;20026;-85
2021/05/07 13:02:06;;;;;;;0.70;0.10;;;;;;;;;;4979797;28;20095;-84
2021/05/07 13:04:32;;;;;;;0.20;0.10;;;;;;;;;;4989367;28;20035;-84
2021/05/07 13:06:58;;;;;;;3.33;0.20;;;;;;;;;;5005628;28;20469;-84
2021/05/07 13:09:24;;;;;;;0.10;0.10;;;;;;;;;;4996954;28;20045;-84
2021/05/07 13:11:50;;;;;;;0.10;0.10;;;;;;;;;;4977700;28;20073;-84
2021/05/07 13:14:16;;;;;;;0.00;0.00;;;;;;;;;;4989665;28;20026;-84
2021/05/07 13:16:42;;;;;;;0.05;0.00;;;;;;;;;;5005983;28;20411;-85
2021/05/07 13:19:08;;;;;;;0.10;0.00;;;;;;;;;;4991712;28;20030;-84
2021/05/07 13:21:34;;;;;;;0.00;0.00;;;;;;;;;;4997378;28;20144;-84
2021/05/07 13:24:01;;;;;;;0.50;0.20;;;;;;;;;;5000617;28;20049;-84
2021/05/07 13:26:27;;;;;;;0.20;0.20;;;;;;;;;;5003801;28;20462;-84
2021/05/07 13:28:59;;;;;;;0.35;0.10;;;;;;;;;;5006702;28;20076;-84
2021/05/07 13:31:25;;;;;;;0.20;0.00;;;;;;;;;;4996318;28;20030;-84
2021/05/07 13:33:51;;;;;;;1.67;0.15;;;;;;;;;;4994553;28;20034;-84
2021/05/07 13:36:17;;;;;;;1.35;0.00;;;;;;;;;;5004061;28;20420;-83
2021/05/07 13:38:45;;;;;;;0.00;0.00;;;;;;;;;;4996740;28;20081;-85
2021/05/07 13:41:11;;;;;;;0.03;0.03;;;;;;;;;;4995030;28;20019;-85
2021/05/07 13:43:38;;;;;;;2.20;0.10;;;;;;;;;;4993790;28;20030;-85
2021/05/07 13:46:04;;;;;;;0.00;0.00;;;;;;;;;;4991847;28;20434;-85
2021/05/07 13:48:30;;;;;;;0.10;0.00;;;;;;;;;;5005164;28;20502;-84
2021/05/07 13:50:56;;;;;;;0.13;0.10;;;;;;;;;;4997613;28;20141;-85
2021/05/07 13:53:22;;;;;;;0.00;0.00;;;;;;;;;;4994677;28;20084;-84
2021/05/07 13:55:48;;;;;;;0.00;0.00;;;;;;;;;;4993953;28;20033;-84
2021/05/07 13:58:14;;;;;;;0.05;0.00;;;;;;;;;;4972583;28;20026;-84
2021/05/07 14:00:40;;;;;;;1.10;0.10;;;;;;;;;;4996911;28;20422;-84
2021/05/07 14:03:06;;;;;;;0.00;0.00;;;;;;;;;;4978724;28;20121;-84
2021/05/07 14:05:32;;;;;;;0.25;0.10;;;;;;;;;;5002346;28;20044;-85
2021/05/07 14:07:58;;;;;;;0.08;0.00;;;;;;;;;;5006942;28;20022;-85
2021/05/07 14:10:25;;;;;;;0.00;0.00;;;;;;;;;;4990253;28;20061;-85
2021/05/07 14:12:51;;;;;;;0.00;0.00;;;;;;;;;;4994856;28;20018;-84
2021/05/07 14:15:17;;;;;;;0.15;0.00;;;;;;;;;;4995195;28;20105;-85
2021/05/07 14:17:44;;;;;;;0.75;0.00;;;;;;;;;;4992848;28;20097;-84
2021/05/07 14:20:11;;;;;;;0.00;0.00;;;;;;;;;;5000063;28;20018;-85
2021/05/07 14:22:37;;;;;;;0.00;0.00;;;;;;;;;;4992793;28;20026;-85
2021/05/07 14:25:03;;;;;;;0.00;0.00;;;;;;;;;;4990437;28;20392;-84
2021/05/07 14:27:29;;;;;;;0.43;0.00;;;;;;;;;;4997235;28;20098;-85
2021/05/07 14:29:55;;;;;;;0.00;0.00;;;;;;;;;;4994608;28;20054;-84
2021/05/07 14:32:21;;;;;;;0.03;0.03;;;;;;;;;;4996965;28;20026;-84
2021/05/07 14:34:47;;;;;;;0.05;0.00;;;;;;;;;;4998760;28;20065;-85
2021/05/07 14:37:13;;;;;;;1.35;0.17;;;;;;;;;;4988971;28;20023;-84
2021/05/07 14:39:41;;;;;;;0.00;0.00;;;;;;;;;;4996635;28;20050;-85